Terminal Aerodrome Forecast
Issued by NWS

Home | Current Version | Previous Version | Text Only | Print | Product List | Glossary On
Versions: 1 2 3 4 5 6 7 8 9 10 11 12 13 14 15
000
FTUS45 KGJT 210521
TAFCNY
TAF
KCNY 210521Z 2106/2206 29014G24KT P6SM FEW110 SCT150
     FM211200 28011KT P6SM SKC
     FM220000 27007KT P6SM FEW150 SCT250
     FM220200 21004KT P6SM FEW150 SCT200=

USA.gov is the U.S. government's official web portal to all federal, state and local government web resources and services.